Time;durP1;ratioP1;P1;durP2;ratioP2;P2;SDS_P1;SDS_P2;PMS_P1;PMS_P2;Temp;Humidity;BMP_temperature;BMP_pressure;BME280_temperature;BME280_humidity;BME280_pressure;Samples;Min_cycle;Max_cycle;Signal;HPM_P1;HPM_P2
2022/01/01 00:02:15;;;;;;;48.45;27.40;;;12.10;99.90;;;;;;5065707;28;20047;-52
2022/01/01 00:04:42;;;;;;;35.95;21.77;;;12.10;99.90;;;;;;5067606;28;20470;-52
2022/01/01 00:07:11;;;;;;;40.13;20.92;;;12.00;99.90;;;;;;5067215;28;20016;-51
2022/01/01 00:09:38;;;;;;;31.50;20.27;;;12.10;99.90;;;;;;5063848;28;20391;-52
2022/01/01 00:12:04;;;;;;;38.53;21.35;;;12.10;99.90;;;;;;5081319;28;20024;-52
2022/01/01 00:14:30;;;;;;;35.47;20.85;;;12.10;99.90;;;;;;5067233;28;20057;-52
2022/01/01 00:16:56;;;;;;;33.20;19.98;;;12.00;99.90;;;;;;5066772;28;20616;-52
2022/01/01 00:19:21;;;;;;;40.30;20.88;;;12.00;99.90;;;;;;5066970;28;20259;-51
2022/01/01 00:21:47;;;;;;;38.45;20.95;;;12.10;99.90;;;;;;5068319;28;20063;-51
2022/01/01 00:24:12;;;;;;;35.28;21.58;;;12.10;99.90;;;;;;5067339;28;20044;-52
2022/01/01 00:26:38;;;;;;;44.30;21.58;;;12.10;99.90;;;;;;5066316;28;20024;-52
2022/01/01 00:29:04;;;;;;;36.97;19.38;;;12.10;99.90;;;;;;5073467;28;20486;-51
2022/01/01 00:31:30;;;;;;;34.65;19.50;;;12.10;99.90;;;;;;5067642;28;20108;-52
2022/01/01 00:33:55;;;;;;;36.17;19.92;;;12.10;99.90;;;;;;5067978;28;20111;-52
2022/01/01 00:36:21;;;;;;;37.00;20.48;;;12.10;99.90;;;;;;5066171;28;20056;-52
2022/01/01 00:38:46;;;;;;;33.47;20.02;;;12.10;99.90;;;;;;5066142;28;20037;-51
2022/01/01 00:41:12;;;;;;;41.20;21.10;;;12.20;99.90;;;;;;5068023;28;20119;-52
2022/01/01 00:43:38;;;;;;;33.97;19.95;;;12.20;99.90;;;;;;5073487;28;20024;-52
2022/01/01 00:46:04;;;;;;;30.67;19.92;;;12.20;99.90;;;;;;5067745;28;20382;-51
2022/01/01 00:48:29;;;;;;;38.38;21.35;;;12.20;99.90;;;;;;5066688;28;20039;-51
2022/01/01 00:50:57;;;;;;;40.80;21.00;;;12.20;99.90;;;;;;5067917;28;20143;-50
2022/01/01 00:53:23;;;;;;;36.95;21.35;;;12.20;99.90;;;;;;5066952;28;20029;-51
2022/01/01 00:55:49;;;;;;;36.50;22.60;;;12.20;99.90;;;;;;5056522;28;20432;-52
2022/01/01 00:58:15;;;;;;;34.45;22.25;;;12.20;99.90;;;;;;5059913;28;20048;-52
2022/01/01 01:00:40;;;;;;;39.47;22.67;;;12.20;99.90;;;;;;5077570;28;20308;-52
2022/01/01 01:03:13;;;;;;;34.80;21.75;;;12.20;99.90;;;;;;5066276;28;20029;-52
2022/01/01 01:05:41;;;;;;;35.88;21.65;;;12.10;99.90;;;;;;5067885;28;20024;-52
2022/01/01 01:08:11;;;;;;;37.83;22.15;;;12.10;99.90;;;;;;5066271;28;20075;-51
2022/01/01 01:10:38;;;;;;;39.13;21.45;;;12.10;99.90;;;;;;5063899;28;20123;-52
2022/01/01 01:13:04;;;;;;;41.33;21.38;;;12.20;99.90;;;;;;5063604;28;20040;-51
2022/01/01 01:15:32;;;;;;;37.58;21.15;;;12.20;99.90;;;;;;5066283;28;20029;-51
2022/01/01 01:17:58;;;;;;;39.08;21.25;;;12.20;99.90;;;;;;5052831;28;20063;-51
2022/01/01 01:20:25;;;;;;;36.75;21.67;;;12.20;99.90;;;;;;5047411;28;20390;-51
2022/01/01 01:22:50;;;;;;;39.38;20.85;;;12.20;99.90;;;;;;5047538;28;20035;-51
2022/01/01 01:25:16;;;;;;;35.88;21.23;;;12.10;99.90;;;;;;5046876;28;20017;-51
2022/01/01 01:27:42;;;;;;;36.03;21.63;;;12.10;99.90;;;;;;5057206;28;20092;-52
2022/01/01 01:30:12;;;;;;;32.40;20.65;;;12.10;99.90;;;;;;5065660;28;20088;-50
2022/01/01 01:32:38;;;;;;;44.03;21.90;;;12.10;99.90;;;;;;5064908;28;20047;-51
2022/01/01 01:35:05;;;;;;;36.75;20.80;;;12.10;99.90;;;;;;5065794;28;20024;-51
2022/01/01 01:37:31;;;;;;;40.00;20.42;;;12.10;99.90;;;;;;5063631;28;20036;-51
2022/01/01 01:39:57;;;;;;;45.17;22.92;;;12.00;99.90;;;;;;5053167;28;20025;-52
2022/01/01 01:42:28;;;;;;;40.35;20.92;;;12.10;99.90;;;;;;5056337;28;20110;-50
2022/01/01 01:44:54;;;;;;;37.75;21.20;;;12.10;99.90;;;;;;5066329;28;20301;-51
2022/01/01 01:47:35;;;;;;;38.42;21.38;;;12.10;99.90;;;;;;5066772;28;20049;-51
2022/01/01 01:50:12;;;;;;;34.35;19.10;;;12.10;99.90;;;;;;5106260;27;20630;-51
2022/01/01 01:52:40;;;;;;;37.63;20.13;;;12.10;99.90;;;;;;5091836;28;20024;-51
2022/01/01 01:55:08;;;;;;;33.17;18.80;;;12.10;99.90;;;;;;5080005;28;20013;-51
2022/01/01 01:57:35;;;;;;;36.53;18.50;;;12.10;99.90;;;;;;5084704;28;20032;-51
2022/01/01 02:00:10;;;;;;;34.10;18.95;;;12.10;99.90;;;;;;5085482;28;20465;-52
2022/01/01 02:02:35;;;;;;;30.70;17.50;;;12.10;99.90;;;;;;5090664;28;20389;-47
2022/01/01 02:05:01;;;;;;;34.75;19.00;;;12.10;99.90;;;;;;5087005;28;20039;-46
2022/01/01 02:07:27;;;;;;;32.22;18.40;;;12.10;99.90;;;;;;5084751;28;20024;-47
2022/01/01 02:09:52;;;;;;;36.92;19.00;;;12.10;99.90;;;;;;5084113;28;20188;-47
2022/01/01 02:12:21;;;;;;;34.70;17.80;;;12.20;99.90;;;;;;5080840;28;20027;-47
2022/01/01 02:17:25;;;;;;;34.97;17.38;;;12.20;99.90;;;;;;5083489;28;20054;-48
2022/01/01 02:19:55;;;;;;;31.67;16.55;;;12.20;99.90;;;;;;5085282;28;20020;-48
2022/01/01 02:22:22;;;;;;;32.25;16.90;;;12.10;99.90;;;;;;5085732;28;20040;-48
2022/01/01 02:24:48;;;;;;;31.75;16.52;;;12.10;99.90;;;;;;5084734;28;20039;-48
2022/01/01 02:27:14;;;;;;;30.13;16.70;;;12.20;99.90;;;;;;5079335;28;20037;-51
2022/01/01 02:29:40;;;;;;;50.78;17.17;;;12.20;99.90;;;;;;5083691;28;20032;-49
2022/01/01 02:32:11;;;;;;;32.42;17.63;;;12.20;99.90;;;;;;5084830;28;20024;-48
2022/01/01 02:34:37;;;;;;;31.25;16.83;;;12.10;99.90;;;;;;5084703;28;20078;-51
2022/01/01 02:37:03;;;;;;;30.50;17.05;;;12.20;99.90;;;;;;5084775;28;20047;-50
2022/01/01 02:39:28;;;;;;;29.85;16.80;;;12.20;99.90;;;;;;5080465;28;20078;-51
2022/01/01 02:41:55;;;;;;;32.42;17.77;;;12.20;99.90;;;;;;5082817;28;20025;-51
2022/01/01 02:44:25;;;;;;;34.92;16.92;;;12.20;99.90;;;;;;5084827;28;20104;-51
2022/01/01 02:46:55;;;;;;;30.27;16.73;;;12.30;99.90;;;;;;5084423;28;20391;-50
2022/01/01 02:49:21;;;;;;;27.65;17.40;;;12.20;99.90;;;;;;5084158;28;20032;-50
2022/01/01 02:51:46;;;;;;;34.33;16.55;;;12.20;99.90;;;;;;5084172;28;20025;-50
2022/01/01 02:54:12;;;;;;;32.97;18.30;;;12.20;99.90;;;;;;5083981;28;20028;-50
2022/01/01 02:56:38;;;;;;;43.63;18.27;;;12.30;99.90;;;;;;5077217;28;20117;-51
2022/01/01 02:59:04;;;;;;;36.17;17.63;;;12.20;99.90;;;;;;5080819;28;20435;-50
2022/01/01 03:01:30;;;;;;;33.55;17.30;;;12.30;99.90;;;;;;5071582;28;20445;-50
2022/01/01 03:03:55;;;;;;;41.05;18.10;;;12.20;99.90;;;;;;5071240;28;20112;-50
2022/01/01 03:06:21;;;;;;;35.38;17.45;;;12.30;99.90;;;;;;5070505;28;20413;-49
2022/01/01 03:08:55;;;;;;;30.58;17.50;;;12.30;99.90;;;;;;5067452;28;20097;-50
2022/01/01 03:11:20;;;;;;;34.95;17.25;;;12.30;99.90;;;;;;5052863;28;20100;-48
2022/01/01 03:13:46;;;;;;;33.90;16.05;;;12.30;99.90;;;;;;5069276;28;20108;-49
2022/01/01 03:16:13;;;;;;;29.48;16.23;;;12.30;99.90;;;;;;5070787;28;20597;-48
2022/01/01 03:18:39;;;;;;;31.23;16.95;;;12.30;99.90;;;;;;5069307;28;20028;-48
2022/01/01 03:21:05;;;;;;;32.03;17.10;;;12.30;99.90;;;;;;5070735;28;20039;-50
2022/01/01 03:23:31;;;;;;;39.28;18.00;;;12.30;99.90;;;;;;5070424;28;20139;-47
2022/01/01 03:25:57;;;;;;;37.58;17.45;;;12.30;99.90;;;;;;5067973;28;20104;-48
2022/01/01 03:28:22;;;;;;;31.33;18.15;;;12.40;99.90;;;;;;5064739;28;20060;-50
2022/01/01 03:30:48;;;;;;;38.28;18.60;;;12.40;99.90;;;;;;5070449;28;20024;-48
2022/01/01 03:33:13;;;;;;;39.53;17.60;;;12.30;99.90;;;;;;5069776;28;20466;-50
2022/01/01 03:35:39;;;;;;;32.28;17.00;;;12.40;99.90;;;;;;5070745;28;20025;-50
2022/01/01 03:38:04;;;;;;;30.65;17.08;;;12.40;99.90;;;;;;5068848;28;20036;-49
2022/01/01 03:40:30;;;;;;;36.20;17.45;;;12.40;99.90;;;;;;5070001;28;20085;-49
2022/01/01 03:42:55;;;;;;;30.48;16.65;;;12.40;99.90;;;;;;5074077;28;20024;-50
2022/01/01 03:45:21;;;;;;;36.88;17.27;;;12.40;99.90;;;;;;5067724;28;20394;-49
2022/01/01 03:47:46;;;;;;;34.45;17.15;;;12.40;99.90;;;;;;5054366;28;20185;-48
2022/01/01 03:50:12;;;;;;;41.60;19.33;;;12.30;99.90;;;;;;5069724;28;20251;-49
2022/01/01 03:52:44;;;;;;;34.90;17.77;;;12.40;99.90;;;;;;5069752;28;20024;-51
2022/01/01 03:55:12;;;;;;;31.02;17.70;;;12.30;99.90;;;;;;5065216;28;20122;-49
2022/01/01 03:57:37;;;;;;;31.30;17.77;;;12.40;99.90;;;;;;5055233;28;20544;-49
2022/01/01 04:00:11;;;;;;;39.88;18.05;;;12.30;99.90;;;;;;5062410;28;20028;-50
2022/01/01 04:02:36;;;;;;;33.33;18.30;;;12.30;99.90;;;;;;5070893;28;20028;-51
2022/01/01 04:05:03;;;;;;;32.25;17.58;;;12.40;99.90;;;;;;5068697;28;20410;-51
2022/01/01 04:07:30;;;;;;;36.30;18.40;;;12.30;99.90;;;;;;5076031;28;20474;-48
2022/01/01 04:09:55;;;;;;;43.55;19.27;;;12.30;99.90;;;;;;5069358;28;20068;-50
2022/01/01 04:12:20;;;;;;;30.55;18.33;;;12.30;99.90;;;;;;5066010;28;20044;-50
2022/01/01 04:14:46;;;;;;;38.72;18.27;;;12.30;99.90;;;;;;5069812;28;20028;-51
2022/01/01 04:17:12;;;;;;;33.72;20.40;;;12.30;99.90;;;;;;5069391;28;20040;-50
2022/01/01 04:19:40;;;;;;;39.75;18.25;;;12.30;99.90;;;;;;5068864;28;20025;-51
2022/01/01 04:22:08;;;;;;;36.10;18.83;;;12.30;99.90;;;;;;5069429;28;20048;-50
2022/01/01 04:24:33;;;;;;;32.65;17.40;;;12.30;99.90;;;;;;5069086;28;20044;-51
2022/01/01 04:26:59;;;;;;;37.53;20.27;;;12.30;99.90;;;;;;5067767;28;20593;-50
2022/01/01 04:29:24;;;;;;;39.08;17.90;;;12.30;99.90;;;;;;5063705;28;20032;-51
2022/01/01 04:31:50;;;;;;;35.58;18.75;;;12.20;99.90;;;;;;5068296;28;20028;-51
2022/01/01 04:34:15;;;;;;;35.67;19.08;;;12.20;99.90;;;;;;5069834;28;20082;-48
2022/01/01 04:36:48;;;;;;;37.92;19.48;;;12.20;99.90;;;;;;5075608;28;20020;-49
2022/01/01 04:39:14;;;;;;;34.95;18.45;;;12.30;99.90;;;;;;5074125;28;20270;-51
2022/01/01 04:41:41;;;;;;;40.13;18.67;;;12.30;99.90;;;;;;5064804;28;20033;-49
2022/01/01 04:44:07;;;;;;;32.25;18.95;;;12.30;99.90;;;;;;5061853;28;20521;-50
2022/01/01 04:46:32;;;;;;;33.85;19.05;;;12.30;99.90;;;;;;5067952;28;20310;-50
2022/01/01 04:48:58;;;;;;;37.45;19.92;;;12.40;99.90;;;;;;5068221;28;20024;-51
2022/01/01 04:51:24;;;;;;;41.00;19.27;;;12.30;99.90;;;;;;5069046;28;20032;-50
2022/01/01 04:53:50;;;;;;;40.63;18.80;;;12.30;99.90;;;;;;5063163;28;20040;-50
2022/01/01 04:56:19;;;;;;;34.20;18.15;;;12.30;99.90;;;;;;5065325;28;20023;-51
2022/01/01 04:58:45;;;;;;;34.67;18.02;;;12.40;99.90;;;;;;5059289;28;20024;-51
2022/01/01 05:01:11;;;;;;;38.15;19.10;;;12.40;99.90;;;;;;5067609;28;20102;-51
2022/01/01 05:03:36;;;;;;;35.33;18.42;;;12.40;99.90;;;;;;5068316;28;20067;-50
2022/01/01 05:06:02;;;;;;;36.40;18.05;;;12.40;99.90;;;;;;5068533;28;20036;-49
2022/01/01 05:08:27;;;;;;;35.50;18.38;;;12.40;99.90;;;;;;5063363;28;20033;-48
2022/01/01 05:10:53;;;;;;;33.50;18.60;;;12.30;99.90;;;;;;5065718;28;20017;-50
2022/01/01 05:13:19;;;;;;;41.60;18.48;;;12.40;99.90;;;;;;5054214;28;20025;-48
2022/01/01 05:15:45;;;;;;;34.05;18.75;;;12.40;99.90;;;;;;5068220;28;20013;-47
2022/01/01 05:18:10;;;;;;;29.70;16.58;;;12.40;99.90;;;;;;5066984;28;20028;-49
2022/01/01 05:20:36;;;;;;;43.33;19.55;;;12.40;99.90;;;;;;5065427;28;20144;-47
2022/01/01 05:23:02;;;;;;;36.38;17.90;;;12.40;99.90;;;;;;5086705;28;20034;-47
2022/01/01 05:25:28;;;;;;;37.65;19.10;;;12.30;99.90;;;;;;5067954;28;20111;-48
2022/01/01 05:27:53;;;;;;;43.42;18.08;;;12.30;99.90;;;;;;5059520;28;20267;-50
2022/01/01 05:30:19;;;;;;;36.50;17.48;;;12.40;99.90;;;;;;5068031;28;20035;-47
2022/01/01 05:32:44;;;;;;;35.70;18.17;;;12.40;99.90;;;;;;5067910;28;20024;-48
2022/01/01 05:35:10;;;;;;;40.45;17.48;;;12.40;99.90;;;;;;5067695;28;20063;-49
2022/01/01 05:37:36;;;;;;;46.28;18.00;;;12.30;99.90;;;;;;5068105;28;20421;-49
2022/01/01 05:40:03;;;;;;;30.63;16.30;;;12.30;99.90;;;;;;5067334;28;20056;-49
2022/01/01 05:42:29;;;;;;;36.20;17.73;;;12.30;99.90;;;;;;5067255;28;20074;-49
2022/01/01 05:44:54;;;;;;;40.20;17.65;;;12.40;99.90;;;;;;5067587;28;20024;-50
2022/01/01 05:47:20;;;;;;;36.75;18.35;;;12.30;99.90;;;;;;5067985;28;20036;-49
2022/01/01 05:49:45;;;;;;;38.28;17.63;;;12.40;99.90;;;;;;5069004;28;20436;-50
2022/01/01 05:52:11;;;;;;;35.70;16.60;;;12.40;99.90;;;;;;5065906;28;20099;-47
2022/01/01 05:54:37;;;;;;;35.30;17.85;;;12.30;99.90;;;;;;5060131;28;20029;-50
2022/01/01 05:57:02;;;;;;;28.92;17.88;;;12.30;99.90;;;;;;5061911;28;20028;-50
2022/01/01 05:59:28;;;;;;;36.72;18.23;;;12.40;99.90;;;;;;5068892;28;20031;-50
2022/01/01 06:01:54;;;;;;;34.13;17.50;;;12.30;99.90;;;;;;5070682;28;20435;-48
2022/01/01 06:04:20;;;;;;;36.88;18.27;;;12.40;99.90;;;;;;5068810;28;20028;-50
2022/01/01 06:06:45;;;;;;;37.03;18.25;;;12.30;99.90;;;;;;5070599;28;20113;-51
2022/01/01 06:09:11;;;;;;;29.35;16.02;;;12.30;99.90;;;;;;5071543;28;20029;-50
2022/01/01 06:11:36;;;;;;;40.38;18.48;;;12.30;99.90;;;;;;5070264;28;20154;-50
2022/01/01 06:14:02;;;;;;;38.75;17.35;;;12.30;99.90;;;;;;5075726;28;20039;-48
2022/01/01 06:16:28;;;;;;;35.10;18.02;;;12.30;99.90;;;;;;5079272;28;20090;-48
2022/01/01 06:18:53;;;;;;;34.40;18.45;;;12.30;99.90;;;;;;5075123;28;20267;-49
2022/01/01 06:21:19;;;;;;;41.83;18.55;;;12.30;99.90;;;;;;5067899;28;20597;-48
2022/01/01 06:23:44;;;;;;;37.65;18.30;;;12.30;99.90;;;;;;5062064;28;20287;-49
2022/01/01 06:26:10;;;;;;;36.35;18.23;;;12.30;99.90;;;;;;5058981;28;20032;-48
2022/01/01 06:28:35;;;;;;;37.42;18.85;;;12.20;99.90;;;;;;5060837;28;20036;-48
2022/01/01 06:31:01;;;;;;;40.30;20.20;;;12.20;99.90;;;;;;5064324;28;20462;-48
2022/01/01 06:33:26;;;;;;;36.47;19.13;;;12.20;99.90;;;;;;5066819;28;20533;-48
2022/01/01 06:35:54;;;;;;;43.08;20.55;;;12.20;99.90;;;;;;5070197;28;20229;-50
2022/01/01 06:38:19;;;;;;;41.13;19.02;;;12.20;99.90;;;;;;5078231;28;20389;-51
2022/01/01 06:40:45;;;;;;;40.05;18.60;;;12.30;99.90;;;;;;5066415;28;20025;-48
2022/01/01 06:43:13;;;;;;;34.17;17.95;;;12.20;99.90;;;;;;5069518;28;20032;-48
2022/01/01 06:45:39;;;;;;;43.75;20.00;;;12.20;99.90;;;;;;5071220;28;20024;-49
2022/01/01 06:48:05;;;;;;;37.00;19.38;;;12.20;99.90;;;;;;5070858;28;20042;-48
2022/01/01 06:50:31;;;;;;;36.60;18.20;;;12.20;99.90;;;;;;5071130;28;20025;-50
2022/01/01 06:52:57;;;;;;;45.28;18.92;;;12.20;99.90;;;;;;5071533;28;20025;-50
2022/01/01 06:55:22;;;;;;;40.22;19.58;;;12.20;99.90;;;;;;5063228;28;20108;-50
2022/01/01 06:57:48;;;;;;;37.20;18.90;;;12.20;99.90;;;;;;5065054;28;20020;-48
2022/01/01 07:00:15;;;;;;;34.38;18.83;;;12.20;99.90;;;;;;5058025;28;20410;-50
2022/01/01 07:02:42;;;;;;;43.67;19.17;;;12.20;99.90;;;;;;5062356;28;20029;-49
2022/01/01 07:05:09;;;;;;;31.85;18.95;;;12.20;99.90;;;;;;5068246;28;20513;-48
2022/01/01 07:07:34;;;;;;;40.53;19.35;;;12.20;99.90;;;;;;5063964;28;20029;-49
2022/01/01 07:10:00;;;;;;;46.20;19.20;;;12.20;99.90;;;;;;5066505;28;20029;-48
2022/01/01 07:12:25;;;;;;;47.70;19.58;;;12.30;99.90;;;;;;5060473;28;20033;-48
2022/01/01 07:14:51;;;;;;;33.53;17.67;;;12.30;99.90;;;;;;5064575;28;20028;-49
2022/01/01 07:17:16;;;;;;;38.58;17.50;;;12.30;99.90;;;;;;5070407;28;20028;-48
2022/01/01 07:19:42;;;;;;;36.22;18.05;;;12.20;99.90;;;;;;5071143;28;20115;-48
2022/01/01 07:22:07;;;;;;;38.20;18.50;;;12.20;99.90;;;;;;5069861;28;20021;-48
2022/01/01 07:24:33;;;;;;;52.78;18.50;;;12.20;99.90;;;;;;5069849;28;20028;-51
2022/01/01 07:26:58;;;;;;;39.28;18.10;;;12.20;99.90;;;;;;5073701;28;20036;-49
2022/01/01 07:29:24;;;;;;;36.35;18.38;;;12.30;99.90;;;;;;5067764;28;20036;-48
2022/01/01 07:31:53;;;;;;;36.97;17.17;;;12.20;99.90;;;;;;5070098;28;20387;-48
2022/01/01 07:34:19;;;;;;;38.63;17.13;;;12.20;99.90;;;;;;5070763;28;20020;-49
2022/01/01 07:36:45;;;;;;;43.17;18.27;;;12.20;99.90;;;;;;5070920;28;20021;-48
2022/01/01 07:39:10;;;;;;;36.63;17.20;;;12.20;99.90;;;;;;5068683;28;20164;-50
2022/01/01 07:41:37;;;;;;;41.55;17.52;;;12.30;99.90;;;;;;5067423;28;20074;-49
2022/01/01 07:44:02;;;;;;;34.65;16.75;;;12.30;99.90;;;;;;5053389;28;20403;-48
2022/01/01 07:46:28;;;;;;;36.22;16.55;;;12.30;99.90;;;;;;5070214;28;20063;-49
2022/01/01 07:48:53;;;;;;;33.60;17.63;;;12.30;99.90;;;;;;5069767;28;20119;-48
2022/01/01 07:51:19;;;;;;;36.05;18.13;;;12.30;99.90;;;;;;5070877;28;20032;-48
2022/01/01 07:53:44;;;;;;;49.42;20.70;;;12.30;99.90;;;;;;5063968;28;20492;-48
2022/01/01 07:56:10;;;;;;;34.90;17.63;;;12.30;99.90;;;;;;5058104;28;20033;-47
2022/01/01 07:58:35;;;;;;;37.58;17.13;;;12.30;99.90;;;;;;5053949;28;20035;-51
2022/01/01 08:01:01;;;;;;;37.95;17.45;;;12.30;99.90;;;;;;5056578;28;20054;-49
2022/01/01 08:03:26;;;;;;;31.38;16.73;;;12.30;99.90;;;;;;5059203;28;20031;-50
2022/01/01 08:05:52;;;;;;;44.28;17.48;;;12.30;99.90;;;;;;5065134;28;20056;-49
2022/01/01 08:08:17;;;;;;;39.03;17.38;;;12.30;99.90;;;;;;5059141;28;20036;-51
2022/01/01 08:10:43;;;;;;;35.88;16.63;;;12.30;99.90;;;;;;5069188;28;20455;-50
2022/01/01 08:13:09;;;;;;;37.03;17.13;;;12.30;99.90;;;;;;5068896;28;20032;-48
2022/01/01 08:15:35;;;;;;;37.00;18.00;;;12.20;99.90;;;;;;5062596;28;20016;-50
2022/01/01 08:18:01;;;;;;;33.47;17.52;;;12.30;99.90;;;;;;5063238;28;20033;-50
2022/01/01 08:20:26;;;;;;;42.83;17.02;;;12.40;99.90;;;;;;5067353;28;20023;-51
2022/01/01 08:22:52;;;;;;;33.38;17.05;;;12.40;99.90;;;;;;5048220;28;20035;-48
2022/01/01 08:25:20;;;;;;;35.65;17.83;;;12.40;99.90;;;;;;5068953;28;20104;-50
2022/01/01 08:27:45;;;;;;;33.70;17.48;;;12.30;99.90;;;;;;5060097;28;20025;-51
2022/01/01 08:30:14;;;;;;;40.40;16.83;;;12.30;99.90;;;;;;5064648;28;20047;-49
2022/01/01 08:32:40;;;;;;;49.60;18.58;;;12.40;99.90;;;;;;5059662;28;20368;-50
2022/01/01 08:35:05;;;;;;;35.15;17.30;;;12.40;99.90;;;;;;5059914;28;20032;-48
2022/01/01 08:37:31;;;;;;;43.20;18.52;;;12.40;99.90;;;;;;5068073;28;20028;-51
2022/01/01 08:39:56;;;;;;;41.35;18.83;;;12.40;99.90;;;;;;5067261;28;20039;-48
2022/01/01 08:42:23;;;;;;;32.90;17.38;;;12.40;99.90;;;;;;5066521;28;20032;-48
2022/01/01 08:44:49;;;;;;;40.42;19.48;;;12.50;99.90;;;;;;5066078;28;20028;-48
2022/01/01 08:47:15;;;;;;;35.42;18.40;;;12.50;99.90;;;;;;5066865;28;20032;-48
2022/01/01 08:49:40;;;;;;;42.38;20.45;;;12.50;99.90;;;;;;5067632;28;20025;-48
2022/01/01 08:52:10;;;;;;;40.88;20.00;;;12.50;99.90;;;;;;5068332;28;20386;-50
2022/01/01 08:54:36;;;;;;;32.27;17.10;;;12.60;99.90;;;;;;5066787;28;20253;-51
2022/01/01 08:57:01;;;;;;;36.33;18.33;;;12.60;99.90;;;;;;5066979;28;20052;-48
2022/01/01 08:59:27;;;;;;;35.50;20.20;;;12.60;99.90;;;;;;5064406;28;20024;-48
2022/01/01 09:01:52;;;;;;;35.65;18.45;;;12.60;99.90;;;;;;5085688;28;20397;-49
2022/01/01 09:04:18;;;;;;;38.10;19.90;;;12.60;99.90;;;;;;5089398;28;20024;-50
2022/01/01 09:06:43;;;;;;;38.33;18.95;;;12.60;99.90;;;;;;5061856;28;20033;-48
2022/01/01 09:09:10;;;;;;;40.70;18.70;;;12.60;99.90;;;;;;5048696;28;20036;-47
2022/01/01 09:11:36;;;;;;;40.67;19.00;;;12.60;99.90;;;;;;5066810;28;20008;-48
2022/01/01 09:14:02;;;;;;;41.97;19.48;;;12.60;99.90;;;;;;5049733;28;20023;-50
2022/01/01 09:16:30;;;;;;;45.08;20.55;;;12.60;99.90;;;;;;5068718;28;20088;-48
2022/01/01 09:18:56;;;;;;;40.85;19.85;;;12.60;99.90;;;;;;5068245;28;20123;-49
2022/01/01 09:21:22;;;;;;;35.72;18.85;;;12.70;99.90;;;;;;5067602;28;20020;-48
2022/01/01 09:23:48;;;;;;;42.35;17.65;;;12.60;99.90;;;;;;5067609;28;20027;-48
2022/01/01 09:26:13;;;;;;;39.60;19.63;;;12.70;99.90;;;;;;5066758;28;20036;-48
2022/01/01 09:28:39;;;;;;;41.03;18.90;;;12.70;99.90;;;;;;5072627;28;20023;-49
2022/01/01 09:31:05;;;;;;;48.95;19.77;;;12.70;99.90;;;;;;5069832;28;20108;-48
2022/01/01 09:33:31;;;;;;;37.92;19.20;;;12.70;99.90;;;;;;5068583;28;20082;-48
2022/01/01 09:36:02;;;;;;;40.13;19.33;;;12.70;99.90;;;;;;5068317;28;20016;-48
2022/01/01 09:38:28;;;;;;;39.20;18.30;;;12.70;99.90;;;;;;5068354;28;20024;-49
2022/01/01 09:40:55;;;;;;;35.67;20.70;;;12.70;99.90;;;;;;5067904;28;20095;-47
2022/01/01 09:43:23;;;;;;;44.15;19.08;;;12.70;99.90;;;;;;5063116;28;20114;-48
2022/01/01 09:45:52;;;;;;;39.25;18.52;;;12.70;99.90;;;;;;5067977;28;20574;-48
2022/01/01 09:48:20;;;;;;;47.33;21.02;;;12.70;99.90;;;;;;5067798;28;20039;-50
2022/01/01 09:50:48;;;;;;;38.25;19.90;;;12.70;99.90;;;;;;5068576;28;20016;-49
2022/01/01 09:53:13;;;;;;;41.35;21.08;;;12.70;99.90;;;;;;5067833;28;20201;-47
2022/01/01 09:55:40;;;;;;;43.97;20.98;;;12.70;99.90;;;;;;5060592;28;20024;-48
2022/01/01 09:58:05;;;;;;;43.45;22.58;;;12.80;99.90;;;;;;5061433;28;20025;-47
2022/01/01 10:00:31;;;;;;;48.45;22.85;;;12.80;99.90;;;;;;5059274;28;20020;-48
2022/01/01 10:02:56;;;;;;;51.25;23.52;;;12.80;99.90;;;;;;5061828;28;20444;-48
2022/01/01 10:05:22;;;;;;;44.05;23.08;;;12.80;99.90;;;;;;5064222;28;20047;-50
2022/01/01 10:07:47;;;;;;;40.10;22.27;;;12.90;99.90;;;;;;5047942;28;20029;-49
2022/01/01 10:10:22;;;;;;;46.20;24.08;;;12.90;99.90;;;;;;5062235;28;20074;-48
2022/01/01 10:12:48;;;;;;;43.90;22.48;;;12.90;99.90;;;;;;5071073;28;20222;-49
2022/01/01 10:15:14;;;;;;;47.53;23.25;;;12.90;99.90;;;;;;5069222;28;20070;-50
2022/01/01 10:17:40;;;;;;;44.25;22.75;;;12.90;99.90;;;;;;5069707;28;20020;-48
2022/01/01 10:20:06;;;;;;;45.85;23.50;;;12.90;99.90;;;;;;5051725;28;20033;-49
2022/01/01 10:22:32;;;;;;;46.40;22.25;;;13.00;99.90;;;;;;5052391;28;20032;-48
2022/01/01 10:28:03;;;;;;;42.10;21.35;;;13.00;99.90;;;;;;5070707;28;20051;-50
2022/01/01 10:30:28;;;;;;;42.50;20.70;;;13.10;99.90;;;;;;5070828;28;20119;-49
2022/01/01 10:33:11;;;;;;;37.88;19.15;;;13.10;99.90;;;;;;5070563;28;20100;-50
2022/01/01 10:35:40;;;;;;;43.15;19.13;;;13.20;99.90;;;;;;5067361;28;20031;-49
2022/01/01 10:38:27;;;;;;;46.03;21.13;;;13.20;99.90;;;;;;5070741;28;20028;-49
2022/01/01 10:41:07;;;;;;;39.60;19.30;;;13.20;99.90;;;;;;5070385;28;20024;-50
2022/01/01 10:43:44;;;;;;;40.63;18.65;;;13.30;99.90;;;;;;5071169;28;20029;-50
2022/01/01 10:46:18;;;;;;;31.27;17.70;;;13.30;99.90;;;;;;5071620;28;20025;-48
2022/01/01 10:48:59;;;;;;;28.73;16.20;;;13.40;99.90;;;;;;5070615;28;20024;-48
2022/01/01 10:51:34;;;;;;;34.45;17.23;;;13.50;99.90;;;;;;5074215;28;20012;-50
2022/01/01 10:54:01;;;;;;;33.45;16.83;;;13.50;99.90;;;;;;5074206;28;20144;-52
2022/01/01 10:56:36;;;;;;;36.70;15.82;;;13.60;99.90;;;;;;5078132;28;20136;-50
2022/01/01 10:59:02;;;;;;;28.55;16.33;;;13.70;99.90;;;;;;5073950;28;20505;-49
2022/01/01 11:01:27;;;;;;;32.97;14.48;;;13.90;99.90;;;;;;5069403;28;20033;-51
2022/01/01 11:03:54;;;;;;;30.98;15.18;;;14.00;99.90;;;;;;5070276;28;20043;-49
2022/01/01 11:06:21;;;;;;;29.50;15.90;;;14.10;99.90;;;;;;5085956;28;20028;-52
2022/01/01 11:08:46;;;;;;;31.60;16.85;;;14.10;99.90;;;;;;5071198;28;20027;-51
2022/01/01 11:11:13;;;;;;;27.77;15.30;;;14.00;99.90;;;;;;5080753;28;20028;-51
2022/01/01 11:13:40;;;;;;;49.13;16.60;;;14.00;99.90;;;;;;5089474;28;20083;-50
2022/01/01 11:16:07;;;;;;;34.08;15.85;;;14.10;99.90;;;;;;5090535;28;20028;-50
2022/01/01 11:18:34;;;;;;;37.42;17.13;;;14.20;99.90;;;;;;5090412;28;20061;-49
2022/01/01 11:21:01;;;;;;;32.60;16.27;;;14.10;99.90;;;;;;5089478;28;20081;-49
2022/01/01 11:23:27;;;;;;;28.75;16.15;;;14.20;99.90;;;;;;5078973;28;20032;-49
2022/01/01 11:25:54;;;;;;;32.60;17.00;;;14.10;99.90;;;;;;5087646;28;20108;-50
2022/01/01 11:28:21;;;;;;;35.85;17.55;;;14.20;99.90;;;;;;5079599;28;20118;-48
2022/01/01 11:31:07;;;;;;;34.13;18.17;;;14.20;99.90;;;;;;5083528;28;20013;-49
2022/01/01 11:33:42;;;;;;;36.92;17.48;;;14.20;99.90;;;;;;5070581;28;20611;-51
2022/01/01 11:36:18;;;;;;;34.83;17.85;;;14.20;99.90;;;;;;5070763;28;20028;-50
2022/01/01 11:38:44;;;;;;;30.15;17.15;;;14.10;99.90;;;;;;5070139;28;20044;-44
2022/01/01 11:41:12;;;;;;;36.50;17.58;;;14.10;99.90;;;;;;5070674;28;20280;-46
2022/01/01 11:43:59;;;;;;;37.80;18.20;;;14.10;99.90;;;;;;5069232;28;20025;-45
2022/01/01 11:46:29;;;;;;;33.58;18.08;;;14.00;99.90;;;;;;5070854;28;20031;-45
2022/01/01 11:49:04;;;;;;;36.65;17.58;;;13.90;99.90;;;;;;5069579;28;20060;-45
2022/01/01 11:51:48;;;;;;;34.80;18.25;;;14.00;99.90;;;;;;5069529;28;20020;-46
2022/01/01 11:54:14;;;;;;;38.15;18.00;;;14.00;99.90;;;;;;5070585;28;20390;-46
2022/01/01 11:56:51;;;;;;;31.23;17.58;;;14.00;99.90;;;;;;5070552;28;20027;-44
2022/01/01 11:59:47;;;;;;;29.42;15.18;;;14.00;99.90;;;;;;5075065;28;20024;-47
2022/01/01 12:02:18;;;;;;;34.90;16.40;;;14.10;99.90;;;;;;5078657;28;20119;-49
2022/01/01 12:04:45;;;;;;;33.42;16.70;;;14.10;99.90;;;;;;5069099;28;20025;-51
2022/01/01 12:07:28;;;;;;;29.80;15.90;;;14.00;99.90;;;;;;5069857;28;20027;-48
2022/01/01 12:10:03;;;;;;;30.98;16.13;;;13.90;99.90;;;;;;5070103;28;20250;-52
2022/01/01 12:12:43;;;;;;;28.67;15.48;;;13.90;99.90;;;;;;5069983;28;20017;-47
2022/01/01 12:15:19;;;;;;;27.75;14.57;;;14.00;99.90;;;;;;5077747;28;20031;-51
2022/01/01 12:17:49;;;;;;;35.95;14.38;;;14.00;99.90;;;;;;5084699;28;20024;-47
2022/01/01 12:20:16;;;;;;;23.73;12.65;;;14.10;99.90;;;;;;5090163;28;20024;-46
2022/01/01 12:22:46;;;;;;;21.95;12.88;;;14.10;99.90;;;;;;5089944;28;20464;-45
2022/01/01 12:25:22;;;;;;;25.83;13.43;;;14.20;99.90;;;;;;5089840;28;20038;-46
2022/01/01 12:27:51;;;;;;;24.67;12.73;;;14.20;99.90;;;;;;5086632;28;20612;-46
2022/01/01 12:30:29;;;;;;;24.63;12.40;;;14.20;99.90;;;;;;5080830;28;20016;-49
2022/01/01 12:32:54;;;;;;;23.45;11.82;;;14.20;99.90;;;;;;5089036;28;20035;-46
2022/01/01 12:35:44;;;;;;;20.48;11.27;;;14.30;99.90;;;;;;5089455;28;20028;-47